createdAt,value
2017-04-18T00:00:33.235Z,25.10
2017-04-18T00:01:35.600Z,25.14
2017-04-18T00:02:37.971Z,25.06
2017-04-18T00:03:40.887Z,24.93
2017-04-18T00:04:43.249Z,24.95
2017-04-18T00:05:45.611Z,24.86
2017-04-18T00:06:47.995Z,24.91
2017-04-18T00:07:50.365Z,24.88
2017-04-18T00:08:53.281Z,24.86
2017-04-18T00:09:55.650Z,24.91
2017-04-18T00:10:58.006Z,24.77
2017-04-18T00:12:00.370Z,24.84
2017-04-18T00:13:02.731Z,24.76
2017-04-18T00:14:05.647Z,24.80
2017-04-18T00:15:08.004Z,24.68
2017-04-18T00:16:10.372Z,24.74
2017-04-18T00:17:12.735Z,24.70
2017-04-18T00:18:15.093Z,24.68
2017-04-18T00:19:18.003Z,24.70
2017-04-18T00:20:20.397Z,24.73
2017-04-18T00:21:22.787Z,24.65
2017-04-18T00:22:25.163Z,24.58
2017-04-18T00:23:27.519Z,24.57
2017-04-18T00:24:30.442Z,24.51
2017-04-18T00:25:32.802Z,24.53
2017-04-18T00:26:35.160Z,24.39
2017-04-18T00:27:37.520Z,24.38
2017-04-18T00:28:39.880Z,24.47
2017-04-18T00:29:42.791Z,24.39
2017-04-18T00:30:45.165Z,24.45
2017-04-18T00:31:47.531Z,24.50
2017-04-18T00:32:49.914Z,24.47
2017-04-18T00:33:52.302Z,24.40
2017-04-18T00:34:55.209Z,24.45
2017-04-18T00:35:57.568Z,24.45
2017-04-18T00:36:59.938Z,24.43
2017-04-18T00:38:02.308Z,24.45
2017-04-18T00:39:04.668Z,24.47
2017-04-18T00:40:07.605Z,24.45
2017-04-18T00:41:09.967Z,24.39
2017-04-18T00:42:12.348Z,24.43
2017-04-18T00:43:14.737Z,24.39
2017-04-18T00:44:17.100Z,24.33
2017-04-18T00:45:20.018Z,24.28
2017-04-18T00:46:22.383Z,24.38
2017-04-18T00:47:24.747Z,24.30
2017-04-18T00:48:27.109Z,24.30
2017-04-18T00:49:29.483Z,24.38
2017-04-18T00:50:32.455Z,24.43
2017-04-18T00:51:34.830Z,24.45
2017-04-18T00:52:37.218Z,24.50
2017-04-18T00:53:39.603Z,24.51
2017-04-18T00:54:41.977Z,24.47
2017-04-18T00:55:44.886Z,24.50
2017-04-18T00:56:47.265Z,24.45
2017-04-18T00:57:49.619Z,24.40
2017-04-18T00:58:51.994Z,24.45
2017-04-18T00:59:54.352Z,24.40
2017-04-18T01:00:57.315Z,24.43
2017-04-18T01:01:59.685Z,24.48
2017-04-18T01:03:02.071Z,24.47
2017-04-18T01:04:04.443Z,24.48
2017-04-18T01:05:06.811Z,24.47
2017-04-18T01:06:09.734Z,24.42
2017-04-18T01:07:12.115Z,24.48
2017-04-18T01:08:14.493Z,24.55
2017-04-18T01:09:16.862Z,24.47
2017-04-18T01:10:19.223Z,24.50
2017-04-18T01:11:22.288Z,24.50
2017-04-18T01:12:24.690Z,24.42
2017-04-18T01:13:27.072Z,24.51
2017-04-18T01:14:29.443Z,24.54
2017-04-18T01:15:31.811Z,24.50
2017-04-18T01:16:34.738Z,24.42
2017-04-18T01:17:37.108Z,24.50
2017-04-18T01:18:39.477Z,24.45
2017-04-18T01:19:41.842Z,24.36
2017-04-18T01:20:44.222Z,24.40
2017-04-18T01:21:47.133Z,24.42
2017-04-18T01:22:49.547Z,24.43
2017-04-18T01:23:51.875Z,24.40
2017-04-18T01:24:54.239Z,24.40
2017-04-18T01:25:56.598Z,24.38
2017-04-18T01:26:59.538Z,24.35
2017-04-18T01:28:01.932Z,24.28
2017-04-18T01:29:04.302Z,24.23
2017-04-18T01:30:06.690Z,24.26
2017-04-18T01:31:09.051Z,24.23
2017-04-18T01:32:11.957Z,24.23
2017-04-18T01:33:14.351Z,24.21
2017-04-18T01:34:16.719Z,24.14
2017-04-18T01:35:19.092Z,24.06
2017-04-18T01:36:21.491Z,24.02
2017-04-18T01:37:24.395Z,24.05
2017-04-18T01:38:26.765Z,23.99
2017-04-18T01:39:29.125Z,23.93
2017-04-18T01:40:31.509Z,23.92
2017-04-18T01:41:33.904Z,23.88
2017-04-18T01:42:36.829Z,23.80
2017-04-18T01:43:39.221Z,23.80
2017-04-18T01:44:41.608Z,23.83
2017-04-18T01:45:43.964Z,23.77
2017-04-18T01:46:46.337Z,23.78
2017-04-18T01:47:49.253Z,23.78
2017-04-18T01:48:51.646Z,23.86
2017-04-18T01:49:54.013Z,23.80
2017-04-18T01:50:56.384Z,23.78
2017-04-18T01:51:58.761Z,23.86
2017-04-18T01:53:01.747Z,23.71
2017-04-18T01:54:04.119Z,23.73
2017-04-18T01:55:06.497Z,23.71
2017-04-18T01:56:08.885Z,23.68
2017-04-18T01:57:11.261Z,23.71
2017-04-18T01:58:14.183Z,23.78
2017-04-18T01:59:16.544Z,23.66
2017-04-18T02:00:18.922Z,23.74
2017-04-18T02:01:21.298Z,23.65
2017-04-18T02:02:23.661Z,23.65
2017-04-18T02:03:26.582Z,23.71
2017-04-18T02:04:28.951Z,23.58
2017-04-18T02:05:31.324Z,23.66
2017-04-18T02:06:33.683Z,23.58
2017-04-18T02:07:36.066Z,23.68
2017-04-18T02:08:39.058Z,23.74
2017-04-18T02:09:41.439Z,23.63
2017-04-18T02:10:43.825Z,23.71
2017-04-18T02:11:46.200Z,23.58
2017-04-18T02:12:48.582Z,23.62
2017-04-18T02:13:51.497Z,23.58
2017-04-18T02:14:53.860Z,23.62
2017-04-18T02:15:56.216Z,23.66
2017-04-18T02:16:58.583Z,23.69
2017-04-18T02:18:00.950Z,23.61
2017-04-18T02:19:03.865Z,23.62
2017-04-18T02:20:06.264Z,23.66
2017-04-18T02:21:08.650Z,23.62
2017-04-18T02:22:11.006Z,23.65
2017-04-18T02:23:13.387Z,23.61
2017-04-18T02:24:16.308Z,23.68
2017-04-18T02:25:18.703Z,23.63
2017-04-18T02:26:21.062Z,23.58
2017-04-18T02:27:23.428Z,23.55
2017-04-18T02:28:25.791Z,23.61
2017-04-18T02:29:28.738Z,23.71
2017-04-18T02:30:31.118Z,23.61
2017-04-18T02:31:33.476Z,23.62
2017-04-18T02:32:35.839Z,23.59
2017-04-18T02:33:38.201Z,23.69
2017-04-18T02:34:41.128Z,23.68
2017-04-18T02:35:43.492Z,23.58
2017-04-18T02:36:45.879Z,23.58
2017-04-18T02:37:48.265Z,23.59
2017-04-18T02:38:50.657Z,23.61
2017-04-18T02:39:53.577Z,23.69
2017-04-18T02:40:55.940Z,23.63
2017-04-18T02:41:58.323Z,23.63
2017-04-18T02:43:00.670Z,23.73
2017-04-18T02:44:03.058Z,23.69
2017-04-18T02:45:05.992Z,23.66
2017-04-18T02:46:08.354Z,23.59
2017-04-18T02:47:10.734Z,23.63
2017-04-18T02:48:13.125Z,23.76
2017-04-18T02:49:15.504Z,23.62
2017-04-18T02:50:18.439Z,23.61
2017-04-18T02:51:20.794Z,23.63
2017-04-18T02:52:23.172Z,23.69
2017-04-18T02:53:25.581Z,23.65
2017-04-18T02:54:27.959Z,23.68
2017-04-18T02:55:30.884Z,23.73
2017-04-18T02:56:33.278Z,23.69
2017-04-18T02:57:35.861Z,23.69
2017-04-18T02:58:38.221Z,23.71
2017-04-18T02:59:40.585Z,23.69
2017-04-18T03:00:43.530Z,23.69
2017-04-18T03:01:45.897Z,23.66
2017-04-18T03:02:48.291Z,23.71
2017-04-18T03:03:50.681Z,23.69
2017-04-18T03:04:53.060Z,23.71
2017-04-18T03:05:55.989Z,23.69
2017-04-18T03:06:58.379Z,23.56
2017-04-18T03:08:00.760Z,23.65
2017-04-18T03:09:03.151Z,23.63
2017-04-18T03:10:05.507Z,23.63
2017-04-18T03:11:08.488Z,23.69
2017-04-18T03:12:10.850Z,23.62
2017-04-18T03:13:13.233Z,23.63
2017-04-18T03:14:15.590Z,23.62
2017-04-18T03:15:17.985Z,23.61
2017-04-18T03:16:20.911Z,23.62
2017-04-18T03:17:23.297Z,23.58
2017-04-18T03:18:25.667Z,23.62
2017-04-18T03:19:28.050Z,23.73
2017-04-18T03:20:30.442Z,23.62
2017-04-18T03:21:33.407Z,23.66
2017-04-18T03:22:35.808Z,23.71
2017-04-18T03:23:38.183Z,23.61
2017-04-18T03:24:40.565Z,23.59
2017-04-18T03:25:42.960Z,23.68
2017-04-18T03:26:45.943Z,23.69
2017-04-18T03:27:48.349Z,23.69
2017-04-18T03:28:50.738Z,23.69
2017-04-18T03:29:53.127Z,23.69
2017-04-18T03:30:55.519Z,23.71
2017-04-18T03:31:58.522Z,23.68
2017-04-18T03:33:00.888Z,23.68
2017-04-18T03:34:03.285Z,23.69
2017-04-18T03:35:05.663Z,23.80
2017-04-18T03:36:08.057Z,23.71
2017-04-18T03:37:10.963Z,23.69
2017-04-18T03:38:13.353Z,23.71
2017-04-18T03:39:15.746Z,23.77
2017-04-18T03:40:18.127Z,23.74
2017-04-18T03:41:20.491Z,23.74
2017-04-18T03:42:23.475Z,23.71
2017-04-18T03:43:25.861Z,23.80
2017-04-18T03:44:28.226Z,23.69
2017-04-18T03:45:30.615Z,23.80
2017-04-18T03:46:32.999Z,23.80
2017-04-18T03:47:35.968Z,23.81
2017-04-18T03:48:38.333Z,23.86
2017-04-18T03:49:40.714Z,23.83
2017-04-18T03:50:43.095Z,23.73
2017-04-18T03:51:45.470Z,23.81
2017-04-18T03:52:48.463Z,23.69
2017-04-18T03:53:50.857Z,23.74
2017-04-18T03:54:53.223Z,23.78
2017-04-18T03:55:55.594Z,23.80
2017-04-18T03:56:57.977Z,23.77
2017-04-18T03:58:00.931Z,23.78
2017-04-18T03:59:03.319Z,23.77
2017-04-18T04:00:05.681Z,23.83
2017-04-18T04:01:08.049Z,23.78
2017-04-18T04:02:10.418Z,23.80
2017-04-18T04:03:13.342Z,23.77
2017-04-18T04:04:15.729Z,23.87
2017-04-18T04:05:18.123Z,23.84
2017-04-18T04:06:20.506Z,23.84
2017-04-18T04:07:22.889Z,23.84
2017-04-18T04:08:25.852Z,23.87
2017-04-18T04:09:28.239Z,23.84
2017-04-18T04:10:30.611Z,23.83
2017-04-18T04:11:33.000Z,23.84
2017-04-18T04:12:35.368Z,23.84
2017-04-18T04:13:38.284Z,23.87
2017-04-18T04:14:40.654Z,23.80
2017-04-18T04:15:43.051Z,23.78
2017-04-18T04:16:45.406Z,23.80
2017-04-18T04:17:47.803Z,23.76
2017-04-18T04:18:50.790Z,23.73
2017-04-18T04:19:53.144Z,23.77
2017-04-18T04:20:55.514Z,23.71
2017-04-18T04:21:57.903Z,23.74
2017-04-18T04:23:00.275Z,23.68
2017-04-18T04:24:03.200Z,23.66
2017-04-18T04:25:05.569Z,23.71
2017-04-18T04:26:07.966Z,23.74
2017-04-18T04:27:10.354Z,23.66
2017-04-18T04:28:12.732Z,23.65
2017-04-18T04:29:15.664Z,23.73
2017-04-18T04:30:18.043Z,23.68
2017-04-18T04:31:20.440Z,23.69
2017-04-18T04:32:22.801Z,23.69
2017-04-18T04:33:25.199Z,23.73
2017-04-18T04:34:28.110Z,23.68
2017-04-18T04:35:30.501Z,23.76
2017-04-18T04:36:32.863Z,23.71
2017-04-18T04:37:35.234Z,23.73
2017-04-18T04:38:37.618Z,23.68
2017-04-18T04:39:40.528Z,23.74
2017-04-18T04:40:42.893Z,23.71
2017-04-18T04:41:45.252Z,23.73
2017-04-18T04:42:47.642Z,23.74
2017-04-18T04:43:50.033Z,23.71
2017-04-18T04:44:53.002Z,23.74
2017-04-18T04:45:55.382Z,23.78
2017-04-18T04:46:57.743Z,23.73
2017-04-18T04:48:00.116Z,23.73
2017-04-18T04:49:02.507Z,23.73
2017-04-18T04:50:05.425Z,23.74
2017-04-18T04:51:07.789Z,23.71
2017-04-18T04:52:10.175Z,23.69
2017-04-18T04:53:12.543Z,23.69
2017-04-18T04:54:14.909Z,23.76
2017-04-18T04:55:17.822Z,23.71
2017-04-18T04:56:20.186Z,23.68
2017-04-18T04:57:22.546Z,23.80
2017-04-18T04:58:24.903Z,23.80
2017-04-18T04:59:27.262Z,23.80
2017-04-18T05:00:30.181Z,23.84
2017-04-18T05:01:32.586Z,23.88
2017-04-18T05:02:34.963Z,23.83
2017-04-18T05:03:37.351Z,23.92
2017-04-18T05:04:39.744Z,23.83
2017-04-18T05:05:42.726Z,23.80
2017-04-18T05:06:45.105Z,23.81
2017-04-18T05:07:47.490Z,23.88
2017-04-18T05:08:49.876Z,23.81
2017-04-18T05:09:52.252Z,23.88
2017-04-18T05:10:55.226Z,23.86
2017-04-18T05:11:57.580Z,23.87
2017-04-18T05:12:59.941Z,23.81
2017-04-18T05:14:02.318Z,23.81
2017-04-18T05:15:04.699Z,23.78
2017-04-18T05:16:07.680Z,23.76
2017-04-18T05:17:10.038Z,23.73
2017-04-18T05:18:12.405Z,23.71
2017-04-18T05:19:14.788Z,23.81
2017-04-18T05:20:17.160Z,23.77
2017-04-18T05:21:20.141Z,23.78
2017-04-18T05:22:22.507Z,23.78
2017-04-18T05:23:24.869Z,23.86
2017-04-18T05:24:27.222Z,23.84
2017-04-18T05:25:29.607Z,23.88
2017-04-18T05:26:32.514Z,23.86
2017-04-18T05:27:34.886Z,23.81
2017-04-18T05:28:37.289Z,23.87
2017-04-18T05:29:39.640Z,23.92
2017-04-18T05:30:42.008Z,23.92
2017-04-18T05:31:44.924Z,23.92
2017-04-18T05:32:47.282Z,23.93
2017-04-18T05:33:49.647Z,23.80
2017-04-18T05:34:52.017Z,23.84
2017-04-18T05:35:54.425Z,23.80
2017-04-18T05:36:57.335Z,23.77
2017-04-18T05:37:59.703Z,23.84
2017-04-18T05:39:02.108Z,23.81
2017-04-18T05:40:04.456Z,23.80
2017-04-18T05:41:06.823Z,23.78
2017-04-18T05:42:09.746Z,23.83
2017-04-18T05:43:12.113Z,23.86
2017-04-18T05:44:14.480Z,23.80
2017-04-18T05:45:16.847Z,23.88
2017-04-18T05:46:19.213Z,23.91
2017-04-18T05:47:22.124Z,23.95
2017-04-18T05:48:24.491Z,23.99
2017-04-18T05:49:26.856Z,24.01
2017-04-18T05:50:29.225Z,23.92
2017-04-18T05:51:31.585Z,23.93
2017-04-18T05:52:34.498Z,23.93
2017-04-18T05:53:36.866Z,23.95
2017-04-18T05:54:39.223Z,24.02
2017-04-18T05:55:41.593Z,24.06
2017-04-18T05:56:43.941Z,24.10
2017-04-18T05:57:46.868Z,24.03
2017-04-18T05:58:49.227Z,24.06
2017-04-18T05:59:51.596Z,23.95
2017-04-18T06:00:53.949Z,23.95
2017-04-18T06:01:56.317Z,24.03
2017-04-18T06:02:59.222Z,24.03
2017-04-18T06:04:01.582Z,24.10
2017-04-18T06:05:03.941Z,24.05
2017-04-18T06:06:06.301Z,23.95
2017-04-18T06:07:08.663Z,23.99
2017-04-18T06:08:11.577Z,24.03
2017-04-18T06:09:13.939Z,24.14
2017-04-18T06:10:16.295Z,24.10
2017-04-18T06:11:18.663Z,24.08
2017-04-18T06:12:21.019Z,24.11
2017-04-18T06:13:23.928Z,24.11
2017-04-18T06:14:26.297Z,24.02
2017-04-18T06:15:28.658Z,24.14
2017-04-18T06:16:31.015Z,24.03
2017-04-18T06:17:33.373Z,24.14
2017-04-18T06:18:36.281Z,24.17
2017-04-18T06:19:38.672Z,24.14
2017-04-18T06:20:41.001Z,24.17
2017-04-18T06:21:43.365Z,24.08
2017-04-18T06:22:45.729Z,24.18
2017-04-18T06:23:48.637Z,24.17
2017-04-18T06:24:50.997Z,24.21
2017-04-18T06:25:53.360Z,24.24
2017-04-18T06:26:55.738Z,24.20
2017-04-18T06:27:58.076Z,24.21
2017-04-18T06:29:00.990Z,24.21
2017-04-18T06:30:03.347Z,24.20
2017-04-18T06:31:05.716Z,24.23
2017-04-18T06:32:08.070Z,24.21
2017-04-18T06:33:10.440Z,24.28
2017-04-18T06:34:13.351Z,24.28
2017-04-18T06:35:15.709Z,24.28
2017-04-18T06:36:18.072Z,24.17
2017-04-18T06:37:20.433Z,24.26
2017-04-18T06:38:22.791Z,24.26
2017-04-18T06:39:25.705Z,24.17
2017-04-18T06:40:28.058Z,24.17
2017-04-18T06:41:30.413Z,24.28
2017-04-18T06:42:32.782Z,24.21
2017-04-18T06:43:35.144Z,24.28
2017-04-18T06:44:38.049Z,24.29
2017-04-18T06:45:40.411Z,24.20
2017-04-18T06:46:42.770Z,24.23
2017-04-18T06:47:45.129Z,24.17
2017-04-18T06:48:47.489Z,24.17
2017-04-18T06:49:50.399Z,24.14
2017-04-18T06:50:52.757Z,24.21
2017-04-18T06:51:55.111Z,24.17
2017-04-18T06:52:57.471Z,24.17
2017-04-18T06:53:59.833Z,24.16
2017-04-18T06:55:02.740Z,24.13
2017-04-18T06:56:05.097Z,24.16
2017-04-18T06:57:07.470Z,24.17
2017-04-18T06:58:09.824Z,24.08
2017-04-18T06:59:12.185Z,24.16
2017-04-18T07:00:15.098Z,24.13
2017-04-18T07:01:17.463Z,24.08
2017-04-18T07:02:19.819Z,24.06
2017-04-18T07:03:22.194Z,24.08
2017-04-18T07:04:24.556Z,23.95
2017-04-18T07:05:27.485Z,24.03
2017-04-18T07:06:29.842Z,24.03
2017-04-18T07:07:32.223Z,23.99
2017-04-18T07:08:34.582Z,23.98
2017-04-18T07:09:36.948Z,23.96
2017-04-18T07:10:39.858Z,23.96
2017-04-18T07:11:42.233Z,23.95
2017-04-18T07:12:44.588Z,23.98
2017-04-18T07:13:46.943Z,23.93
2017-04-18T07:14:49.300Z,23.88
2017-04-18T07:15:52.211Z,23.92
2017-04-18T07:16:54.566Z,23.88
2017-04-18T07:17:56.927Z,23.86
2017-04-18T07:18:59.290Z,23.87
2017-04-18T07:20:01.656Z,23.88
2017-04-18T07:21:04.568Z,23.86
2017-04-18T07:22:06.935Z,23.87
2017-04-18T07:23:09.288Z,23.83
2017-04-18T07:24:11.651Z,23.92
2017-04-18T07:25:14.005Z,23.91
2017-04-18T07:26:16.915Z,23.81
2017-04-18T07:27:19.269Z,23.78
2017-04-18T07:28:21.631Z,23.84
2017-04-18T07:29:23.990Z,23.78
2017-04-18T07:30:26.362Z,23.78
2017-04-18T07:31:29.273Z,23.80
2017-04-18T07:32:31.632Z,23.80
2017-04-18T07:33:33.991Z,23.74
2017-04-18T07:34:36.360Z,23.81
2017-04-18T07:35:38.712Z,23.71
2017-04-18T07:36:41.626Z,23.74
2017-04-18T07:37:43.984Z,23.66
2017-04-18T07:38:46.363Z,23.69
2017-04-18T07:39:48.718Z,23.68
2017-04-18T07:40:51.080Z,23.66
2017-04-18T07:41:54.004Z,23.71
2017-04-18T07:42:56.361Z,23.66
2017-04-18T07:43:58.722Z,23.68
2017-04-18T07:45:01.087Z,23.62
2017-04-18T07:46:03.435Z,23.66
2017-04-18T07:47:06.352Z,23.76
2017-04-18T07:48:08.699Z,23.58
2017-04-18T07:49:11.077Z,23.68
2017-04-18T07:50:13.435Z,23.71
2017-04-18T07:51:15.787Z,23.65
2017-04-18T07:52:18.704Z,23.62
2017-04-18T07:53:21.070Z,23.61
2017-04-18T07:54:23.423Z,23.56
2017-04-18T07:55:25.792Z,23.56
2017-04-18T07:56:28.143Z,23.55
2017-04-18T07:57:31.060Z,23.54
2017-04-18T07:58:33.411Z,23.54
2017-04-18T07:59:35.780Z,23.59
2017-04-18T08:00:38.139Z,23.59
2017-04-18T08:01:40.491Z,23.51
2017-04-18T08:02:43.412Z,23.55
2017-04-18T08:03:45.768Z,23.51
2017-04-18T08:04:48.137Z,23.51
2017-04-18T08:05:50.507Z,23.55
2017-04-18T08:06:52.868Z,23.50
2017-04-18T08:07:55.778Z,23.51
2017-04-18T08:08:58.128Z,23.66
2017-04-18T08:10:00.484Z,23.54
2017-04-18T08:11:02.849Z,23.62
2017-04-18T08:12:05.208Z,23.54
2017-04-18T08:13:08.114Z,23.54
2017-04-18T08:14:10.478Z,23.58
2017-04-18T08:15:12.841Z,23.62
2017-04-18T08:16:15.195Z,23.69
2017-04-18T08:17:17.553Z,23.61
2017-04-18T08:18:20.462Z,23.59
2017-04-18T08:19:22.826Z,23.56
2017-04-18T08:20:25.194Z,23.56
2017-04-18T08:21:27.548Z,23.50
2017-04-18T08:22:29.906Z,23.50
2017-04-18T08:23:32.821Z,23.58
2017-04-18T08:24:35.180Z,23.61
2017-04-18T08:25:37.536Z,23.55
2017-04-18T08:26:39.903Z,23.51
2017-04-18T08:27:42.266Z,23.51
2017-04-18T08:28:45.173Z,23.50
2017-04-18T08:29:47.550Z,23.54
2017-04-18T08:30:49.908Z,23.58
2017-04-18T08:31:52.268Z,23.58
2017-04-18T08:32:54.622Z,23.55
2017-04-18T08:33:57.532Z,23.58
2017-04-18T08:34:59.885Z,23.50
2017-04-18T08:36:02.242Z,23.51
2017-04-18T08:37:04.618Z,23.56
2017-04-18T08:38:06.972Z,23.54
2017-04-18T08:39:09.880Z,23.61
2017-04-18T08:40:12.242Z,23.55
2017-04-18T08:41:14.601Z,23.63
2017-04-18T08:42:16.962Z,23.63
2017-04-18T08:43:19.320Z,23.63
2017-04-18T08:44:22.230Z,23.58
2017-04-18T08:45:24.593Z,23.68
2017-04-18T08:46:26.956Z,23.51
2017-04-18T08:47:29.316Z,23.58
2017-04-18T08:48:31.678Z,23.50
2017-04-18T08:49:34.599Z,23.51
2017-04-18T08:50:36.949Z,23.55
2017-04-18T08:51:39.306Z,23.54
2017-04-18T08:52:41.669Z,23.58
2017-04-18T08:53:44.023Z,23.62
2017-04-18T08:54:46.938Z,23.59
2017-04-18T08:55:49.305Z,23.61
2017-04-18T08:56:51.674Z,23.56
2017-04-18T08:57:54.028Z,23.66
2017-04-18T08:58:56.386Z,23.58
2017-04-18T08:59:59.291Z,23.71
2017-04-18T09:01:01.655Z,23.63
2017-04-18T09:02:04.009Z,23.62
2017-04-18T09:03:06.367Z,23.71
2017-04-18T09:04:08.736Z,23.68
2017-04-18T09:05:11.649Z,23.71
2017-04-18T09:06:14.008Z,23.74
2017-04-18T09:07:16.366Z,23.74
2017-04-18T09:08:18.738Z,23.73
2017-04-18T09:09:21.096Z,23.66
2017-04-18T09:10:24.006Z,23.71
2017-04-18T09:11:26.365Z,23.71
2017-04-18T09:12:28.732Z,23.71
2017-04-18T09:13:31.092Z,23.68
2017-04-18T09:14:33.449Z,23.69
2017-04-18T09:15:36.361Z,23.73
2017-04-18T09:16:38.719Z,23.71
2017-04-18T09:17:41.079Z,23.73
2017-04-18T09:18:43.437Z,23.71
2017-04-18T09:19:45.799Z,23.78
2017-04-18T09:20:48.906Z,23.69
2017-04-18T09:21:51.272Z,23.83
2017-04-18T09:22:53.628Z,23.77
2017-04-18T09:23:55.986Z,23.83
2017-04-18T09:24:58.344Z,23.78
2017-04-18T09:26:01.255Z,23.80
2017-04-18T09:27:03.610Z,23.84
2017-04-18T09:28:05.974Z,23.81
2017-04-18T09:29:08.341Z,23.84
2017-04-18T09:30:10.697Z,23.78
2017-04-18T09:31:13.607Z,23.80
2017-04-18T09:32:15.965Z,23.83
2017-04-18T09:33:18.335Z,23.80
2017-04-18T09:34:20.699Z,23.76
2017-04-18T09:35:23.057Z,23.69
2017-04-18T09:36:25.978Z,23.69
2017-04-18T09:37:28.333Z,23.71
2017-04-18T09:38:30.689Z,23.69
2017-04-18T09:39:33.042Z,23.69
2017-04-18T09:40:35.605Z,23.68
2017-04-18T09:41:38.514Z,23.66
2017-04-18T09:42:40.871Z,23.61
2017-04-18T09:43:43.238Z,23.69
2017-04-18T09:44:45.600Z,23.59
2017-04-18T09:45:47.952Z,23.54
2017-04-18T09:46:50.858Z,23.54
2017-04-18T09:47:53.230Z,23.51
2017-04-18T09:48:55.592Z,23.56
2017-04-18T09:49:57.949Z,23.62
2017-04-18T09:51:00.305Z,23.58
2017-04-18T09:52:03.237Z,23.59
2017-04-18T09:53:05.591Z,23.56
2017-04-18T09:54:07.949Z,23.59
2017-04-18T09:55:13.350Z,23.59
2017-04-18T09:56:15.715Z,23.69
2017-04-18T09:58:19.352Z,23.58
2017-04-18T09:59:21.721Z,23.71
2017-04-18T10:00:24.074Z,23.69
2017-04-18T10:01:26.442Z,23.58
2017-04-18T10:02:28.801Z,23.56
2017-04-18T10:03:31.709Z,23.62
2017-04-18T10:04:34.070Z,23.62
2017-04-18T10:05:36.432Z,23.62
2017-04-18T10:06:38.800Z,23.62
2017-04-18T10:07:41.153Z,23.69
2017-04-18T10:08:44.261Z,23.66
2017-04-18T10:09:46.622Z,23.66
2017-04-18T10:10:49.182Z,23.68
2017-04-18T10:11:51.544Z,23.69
2017-04-18T10:12:53.909Z,23.65
2017-04-18T10:13:56.818Z,23.66
2017-04-18T10:14:59.174Z,23.71
2017-04-18T10:16:01.538Z,23.69
2017-04-18T10:17:03.902Z,23.65
2017-04-18T10:18:06.263Z,23.71
2017-04-18T10:19:09.377Z,23.65
2017-04-18T10:20:11.741Z,23.71
2017-04-18T10:21:14.098Z,23.63
2017-04-18T10:22:16.479Z,23.58
2017-04-18T10:23:18.831Z,23.66
2017-04-18T10:24:21.752Z,23.69
2017-04-18T10:25:24.114Z,23.69
2017-04-18T10:26:26.478Z,23.59
2017-04-18T10:27:28.840Z,23.65
2017-04-18T10:28:31.201Z,23.54
2017-04-18T10:29:34.121Z,23.58
2017-04-18T10:30:36.475Z,23.56
2017-04-18T10:31:38.846Z,23.59
2017-04-18T10:32:41.202Z,23.44
2017-04-18T10:33:43.564Z,23.47
2017-04-18T10:34:46.470Z,23.54
2017-04-18T10:35:48.831Z,23.43
2017-04-18T10:36:51.192Z,23.41
2017-04-18T10:37:53.552Z,23.48
2017-04-18T10:38:55.905Z,23.48
2017-04-18T10:39:58.812Z,23.48
2017-04-18T10:41:01.171Z,23.43
2017-04-18T10:42:03.743Z,23.46
2017-04-18T10:43:06.101Z,23.40
2017-04-18T10:44:08.468Z,23.40
2017-04-18T10:45:11.389Z,23.32
2017-04-18T10:46:13.750Z,23.43
2017-04-18T10:47:16.110Z,23.34
2017-04-18T10:48:18.473Z,23.34
2017-04-18T10:49:20.829Z,23.37
2017-04-18T10:50:25.699Z,23.34
2017-04-18T10:51:28.055Z,23.36
2017-04-18T10:52:30.417Z,23.40
2017-04-18T10:53:32.782Z,23.36
2017-04-18T10:54:35.138Z,23.43
2017-04-18T10:55:40.004Z,23.47
2017-04-18T10:56:42.359Z,23.43
2017-04-18T10:57:44.939Z,23.43
2017-04-18T10:58:47.289Z,23.41
2017-04-18T10:59:49.644Z,23.48
2017-04-18T11:00:52.551Z,23.48
2017-04-18T11:01:54.927Z,23.41
2017-04-18T11:02:57.270Z,23.41
2017-04-18T11:03:59.629Z,23.46
2017-04-18T11:05:01.999Z,23.44
2017-04-18T11:06:04.910Z,23.46
2017-04-18T11:07:07.267Z,23.40
2017-04-18T11:08:09.625Z,23.46
2017-04-18T11:09:11.983Z,23.43
2017-04-18T11:10:14.344Z,23.41
2017-04-18T11:11:17.265Z,23.41
2017-04-18T11:12:19.619Z,23.41
2017-04-18T11:13:21.988Z,23.48
2017-04-18T11:14:24.351Z,23.43
2017-04-18T11:15:26.715Z,23.50
2017-04-18T11:16:29.627Z,23.50
2017-04-18T11:17:32.000Z,23.55
2017-04-18T11:18:34.353Z,23.55
2017-04-18T11:19:36.714Z,23.61
2017-04-18T11:20:39.076Z,23.58
2017-04-18T11:21:41.991Z,23.55
2017-04-18T11:22:44.355Z,23.59
2017-04-18T11:23:46.720Z,23.55
2017-04-18T11:24:49.076Z,23.54
2017-04-18T11:25:51.433Z,23.58
2017-04-18T11:26:54.351Z,23.62
2017-04-18T11:27:56.702Z,23.59
2017-04-18T11:28:59.067Z,23.56
2017-04-18T11:30:01.435Z,23.54
2017-04-18T11:31:03.783Z,23.48
2017-04-18T11:32:06.695Z,23.50
2017-04-18T11:33:09.055Z,23.55
2017-04-18T11:34:11.413Z,23.46
2017-04-18T11:35:13.981Z,23.46
2017-04-18T11:36:16.339Z,23.55
2017-04-18T11:37:19.248Z,23.50
2017-04-18T11:38:21.605Z,23.46
2017-04-18T11:39:23.960Z,23.62
2017-04-18T11:40:26.319Z,23.51
2017-04-18T11:41:28.691Z,23.55
2017-04-18T11:42:31.606Z,23.54
2017-04-18T11:43:33.969Z,23.55
2017-04-18T11:44:36.332Z,23.54
2017-04-18T11:45:38.689Z,23.55
2017-04-18T11:46:41.051Z,23.55
2017-04-18T11:47:43.960Z,23.54
2017-04-18T11:48:46.320Z,23.55
2017-04-18T11:49:48.682Z,23.56
2017-04-18T11:50:51.046Z,23.55
2017-04-18T11:51:53.414Z,23.48
2017-04-18T11:52:56.334Z,23.56
2017-04-18T11:53:58.700Z,23.56
2017-04-18T11:55:01.059Z,23.50
2017-04-18T11:56:03.425Z,23.55
2017-04-18T11:57:05.789Z,23.50
2017-04-18T11:58:08.693Z,23.59
2017-04-18T11:59:11.052Z,23.48
2017-04-18T12:00:13.419Z,23.61
2017-04-18T12:01:15.777Z,23.54
2017-04-18T12:02:18.148Z,23.55
2017-04-18T12:03:21.060Z,23.58
2017-04-18T12:04:23.427Z,23.56
2017-04-18T12:05:25.785Z,23.62
2017-04-18T12:06:28.161Z,23.71
2017-04-18T12:07:30.532Z,23.61
2017-04-18T12:08:33.439Z,23.71
2017-04-18T12:09:35.810Z,23.66
2017-04-18T12:10:38.178Z,23.69
2017-04-18T12:11:40.537Z,23.65
2017-04-18T12:12:42.904Z,23.68
2017-04-18T12:13:45.819Z,23.66
2017-04-18T12:14:48.188Z,23.69
2017-04-18T12:15:50.748Z,23.69
2017-04-18T12:16:53.120Z,23.71
2017-04-18T12:17:55.482Z,23.81
2017-04-18T12:18:58.398Z,23.83
2017-04-18T12:20:00.762Z,23.78
2017-04-18T12:21:03.137Z,23.83
2017-04-18T12:22:05.504Z,23.84
2017-04-18T12:23:07.876Z,23.91
2017-04-18T12:24:10.796Z,23.86
2017-04-18T12:25:13.162Z,23.87
2017-04-18T12:26:15.526Z,23.93
2017-04-18T12:27:17.900Z,24.02
2017-04-18T12:28:20.258Z,23.95
2017-04-18T12:29:23.175Z,23.98
2017-04-18T12:30:25.540Z,24.10
2017-04-18T12:31:27.917Z,24.01
2017-04-18T12:32:30.276Z,24.05
2017-04-18T12:33:32.638Z,24.06
2017-04-18T12:34:35.556Z,24.08
2017-04-18T12:35:37.921Z,24.11
2017-04-18T12:36:40.283Z,24.13
2017-04-18T12:37:42.644Z,24.11
2017-04-18T12:38:45.016Z,24.17
2017-04-18T12:39:47.932Z,24.23
2017-04-18T12:40:50.300Z,24.26
2017-04-18T12:41:52.664Z,24.23
2017-04-18T12:42:55.029Z,24.24
2017-04-18T12:43:57.388Z,24.36
2017-04-18T12:45:00.313Z,24.23
2017-04-18T12:46:02.681Z,24.32
2017-04-18T12:47:05.053Z,24.39
2017-04-18T12:48:07.422Z,24.36
2017-04-18T12:49:09.785Z,24.35
2017-04-18T12:50:12.700Z,24.45
2017-04-18T12:51:15.070Z,24.45
2017-04-18T12:52:17.432Z,24.36
2017-04-18T12:53:19.801Z,24.43
2017-04-18T12:54:22.167Z,24.53
2017-04-18T12:55:25.088Z,24.45
2017-04-18T12:56:27.454Z,24.48
2017-04-18T12:57:29.815Z,24.57
2017-04-18T12:58:32.178Z,24.63
2017-04-18T12:59:34.545Z,24.65
2017-04-18T13:00:37.472Z,24.77
2017-04-18T13:01:39.836Z,24.78
2017-04-18T13:02:42.211Z,24.78
2017-04-18T13:03:44.580Z,24.77
2017-04-18T13:04:46.949Z,24.86
2017-04-18T13:05:49.867Z,24.85
2017-04-18T13:06:52.246Z,24.98
2017-04-18T13:07:54.616Z,24.93
2017-04-18T13:08:56.982Z,24.99
2017-04-18T13:09:59.358Z,25.04
2017-04-18T13:11:02.277Z,25.11
2017-04-18T13:12:04.638Z,25.10
2017-04-18T13:13:07.018Z,25.10
2017-04-18T13:14:09.399Z,25.17
2017-04-18T13:15:11.765Z,25.18
2017-04-18T13:16:14.683Z,25.26
2017-04-18T13:17:17.056Z,25.32
2017-04-18T13:18:19.428Z,25.18
2017-04-18T13:19:21.795Z,25.21
2017-04-18T13:20:24.168Z,25.21
2017-04-18T13:21:27.085Z,25.18
2017-04-18T13:22:29.468Z,25.33
2017-04-18T13:23:31.825Z,25.36
2017-04-18T13:24:34.193Z,25.36
2017-04-18T13:25:36.592Z,25.50